sensor_id;sensor_type;location;lat;lon;timestamp;temperature;humidity
31263;DHT22;17892;52.080;9.006;2023-05-29T00:00:14;13.30;79.90
31263;DHT22;17892;52.080;9.006;2023-05-29T00:02:43;13.30;79.70
31263;DHT22;17892;52.080;9.006;2023-05-29T00:05:14;13.20;80.30
31263;DHT22;17892;52.080;9.006;2023-05-29T00:07:40;13.20;82.30
31263;DHT22;17892;52.080;9.006;2023-05-29T00:10:07;13.20;82.10
31263;DHT22;17892;52.080;9.006;2023-05-29T00:12:34;13.10;82.40
31263;DHT22;17892;52.080;9.006;2023-05-29T00:15:00;13.10;82.50
31263;DHT22;17892;52.080;9.006;2023-05-29T00:17:27;13.00;82.20
31263;DHT22;17892;52.080;9.006;2023-05-29T00:19:53;13.00;82.60
31263;DHT22;17892;52.080;9.006;2023-05-29T00:22:19;13.00;82.40
31263;DHT22;17892;52.080;9.006;2023-05-29T00:24:45;12.90;82.70
31263;DHT22;17892;52.080;9.006;2023-05-29T00:27:12;12.90;83.80
31263;DHT22;17892;52.080;9.006;2023-05-29T00:29:37;12.90;84.80
31263;DHT22;17892;52.080;9.006;2023-05-29T00:32:04;12.80;84.20
31263;DHT22;17892;52.080;9.006;2023-05-29T00:34:32;12.80;84.90
31263;DHT22;17892;52.080;9.006;2023-05-29T00:36:59;12.80;84.30
31263;DHT22;17892;52.080;9.006;2023-05-29T00:39:24;12.70;85.40
31263;DHT22;17892;52.080;9.006;2023-05-29T00:41:50;12.70;85.00
31263;DHT22;17892;52.080;9.006;2023-05-29T00:44:18;12.70;86.00
31263;DHT22;17892;52.080;9.006;2023-05-29T00:46:45;12.70;86.40
31263;DHT22;17892;52.080;9.006;2023-05-29T00:49:12;12.60;86.80
31263;DHT22;17892;52.080;9.006;2023-05-29T00:51:38;12.60;85.90
31263;DHT22;17892;52.080;9.006;2023-05-29T00:54:07;12.50;86.70
31263;DHT22;17892;52.080;9.006;2023-05-29T00:56:36;12.50;88.00
31263;DHT22;17892;52.080;9.006;2023-05-29T00:59:01;12.40;86.90
31263;DHT22;17892;52.080;9.006;2023-05-29T01:01:29;12.40;86.70
31263;DHT22;17892;52.080;9.006;2023-05-29T01:03:57;12.40;87.20
31263;DHT22;17892;52.080;9.006;2023-05-29T01:06:26;12.30;86.20
31263;DHT22;17892;52.080;9.006;2023-05-29T01:08:52;12.30;87.10
31263;DHT22;17892;52.080;9.006;2023-05-29T01:13:45;12.20;86.70
31263;DHT22;17892;52.080;9.006;2023-05-29T01:16:23;12.20;87.80
31263;DHT22;17892;52.080;9.006;2023-05-29T01:19:00;12.10;89.70
31263;DHT22;17892;52.080;9.006;2023-05-29T01:24:58;12.10;91.80
31263;DHT22;17892;52.080;9.006;2023-05-29T01:27:34;12.00;89.00
31263;DHT22;17892;52.080;9.006;2023-05-29T01:30:02;12.00;88.70
31263;DHT22;17892;52.080;9.006;2023-05-29T01:32:29;11.90;88.90
31263;DHT22;17892;52.080;9.006;2023-05-29T01:34:55;11.90;88.70
31263;DHT22;17892;52.080;9.006;2023-05-29T01:37:21;11.80;88.40
31263;DHT22;17892;52.080;9.006;2023-05-29T01:39:47;11.80;89.50
31263;DHT22;17892;52.080;9.006;2023-05-29T01:42:12;11.80;89.20
31263;DHT22;17892;52.080;9.006;2023-05-29T01:44:39;11.70;89.10
31263;DHT22;17892;52.080;9.006;2023-05-29T01:47:05;11.70;89.40
31263;DHT22;17892;52.080;9.006;2023-05-29T01:49:31;11.60;89.30
31263;DHT22;17892;52.080;9.006;2023-05-29T01:51:58;11.60;89.20
31263;DHT22;17892;52.080;9.006;2023-05-29T01:54:23;11.60;90.00
31263;DHT22;17892;52.080;9.006;2023-05-29T01:56:50;11.50;89.60
31263;DHT22;17892;52.080;9.006;2023-05-29T01:59:16;11.50;90.20
31263;DHT22;17892;52.080;9.006;2023-05-29T02:01:42;11.40;90.00
31263;DHT22;17892;52.080;9.006;2023-05-29T02:04:08;11.40;90.30
31263;DHT22;17892;52.080;9.006;2023-05-29T02:06:34;11.40;90.00
31263;DHT22;17892;52.080;9.006;2023-05-29T02:08:59;11.40;89.60
31263;DHT22;17892;52.080;9.006;2023-05-29T02:11:25;11.30;90.20
31263;DHT22;17892;52.080;9.006;2023-05-29T02:13:51;11.30;90.30
31263;DHT22;17892;52.080;9.006;2023-05-29T02:16:18;11.30;90.30
31263;DHT22;17892;52.080;9.006;2023-05-29T02:18:46;11.20;90.00
31263;DHT22;17892;52.080;9.006;2023-05-29T02:21:12;11.20;90.00
31263;DHT22;17892;52.080;9.006;2023-05-29T02:23:38;11.20;90.40
31263;DHT22;17892;52.080;9.006;2023-05-29T02:26:04;11.10;90.50
31263;DHT22;17892;52.080;9.006;2023-05-29T02:28:30;11.10;91.00
31263;DHT22;17892;52.080;9.006;2023-05-29T02:30:55;11.10;90.70
31263;DHT22;17892;52.080;9.006;2023-05-29T02:33:21;11.10;91.20
31263;DHT22;17892;52.080;9.006;2023-05-29T02:35:47;11.00;91.10
31263;DHT22;17892;52.080;9.006;2023-05-29T02:38:12;11.00;91.10
31263;DHT22;17892;52.080;9.006;2023-05-29T02:40:38;11.00;91.10
31263;DHT22;17892;52.080;9.006;2023-05-29T02:43:05;11.00;91.10
31263;DHT22;17892;52.080;9.006;2023-05-29T02:45:31;10.90;91.30
31263;DHT22;17892;52.080;9.006;2023-05-29T02:47:58;10.90;91.20
31263;DHT22;17892;52.080;9.006;2023-05-29T02:50:24;10.90;91.00
31263;DHT22;17892;52.080;9.006;2023-05-29T02:52:50;10.90;91.20
31263;DHT22;17892;52.080;9.006;2023-05-29T02:55:16;10.80;91.10
31263;DHT22;17892;52.080;9.006;2023-05-29T02:57:41;10.80;91.20
31263;DHT22;17892;52.080;9.006;2023-05-29T03:00:07;10.80;91.30
31263;DHT22;17892;52.080;9.006;2023-05-29T03:02:34;10.80;91.50
31263;DHT22;17892;52.080;9.006;2023-05-29T03:05:03;10.80;91.20
31263;DHT22;17892;52.080;9.006;2023-05-29T03:07:29;10.70;91.50
31263;DHT22;17892;52.080;9.006;2023-05-29T03:09:54;10.70;91.80
31263;DHT22;17892;52.080;9.006;2023-05-29T03:12:20;10.70;91.70
31263;DHT22;17892;52.080;9.006;2023-05-29T03:14:46;10.60;91.90
31263;DHT22;17892;52.080;9.006;2023-05-29T03:17:12;10.60;91.80
31263;DHT22;17892;52.080;9.006;2023-05-29T03:19:38;10.60;91.90
31263;DHT22;17892;52.080;9.006;2023-05-29T03:22:04;10.60;91.80
31263;DHT22;17892;52.080;9.006;2023-05-29T03:24:30;10.60;91.90
31263;DHT22;17892;52.080;9.006;2023-05-29T03:26:56;10.60;91.80
31263;DHT22;17892;52.080;9.006;2023-05-29T03:29:22;10.60;91.90
31263;DHT22;17892;52.080;9.006;2023-05-29T03:31:48;10.60;92.10
31263;DHT22;17892;52.080;9.006;2023-05-29T03:34:13;10.60;92.50
31263;DHT22;17892;52.080;9.006;2023-05-29T03:36:39;10.50;92.40
31263;DHT22;17892;52.080;9.006;2023-05-29T03:39:05;10.50;92.50
31263;DHT22;17892;52.080;9.006;2023-05-29T03:41:31;10.50;92.50
31263;DHT22;17892;52.080;9.006;2023-05-29T03:43:57;10.50;92.50
31263;DHT22;17892;52.080;9.006;2023-05-29T03:46:23;10.50;92.50
31263;DHT22;17892;52.080;9.006;2023-05-29T03:48:48;10.50;92.60
31263;DHT22;17892;52.080;9.006;2023-05-29T03:51:14;10.50;92.50
31263;DHT22;17892;52.080;9.006;2023-05-29T03:53:40;10.50;92.70
31263;DHT22;17892;52.080;9.006;2023-05-29T03:56:06;10.50;92.90
31263;DHT22;17892;52.080;9.006;2023-05-29T03:58:32;10.50;93.00
31263;DHT22;17892;52.080;9.006;2023-05-29T04:00:57;10.50;93.10
31263;DHT22;17892;52.080;9.006;2023-05-29T04:03:23;10.50;93.10
31263;DHT22;17892;52.080;9.006;2023-05-29T04:05:49;10.60;93.30
31263;DHT22;17892;52.080;9.006;2023-05-29T04:08:15;10.60;93.50
31263;DHT22;17892;52.080;9.006;2023-05-29T04:10:41;10.70;93.80
31263;DHT22;17892;52.080;9.006;2023-05-29T04:13:06;10.70;93.90
31263;DHT22;17892;52.080;9.006;2023-05-29T04:15:32;10.70;93.80
31263;DHT22;17892;52.080;9.006;2023-05-29T04:18:01;10.80;94.00
31263;DHT22;17892;52.080;9.006;2023-05-29T04:20:27;10.90;94.10
31263;DHT22;17892;52.080;9.006;2023-05-29T04:22:52;10.90;94.20
31263;DHT22;17892;52.080;9.006;2023-05-29T04:25:18;11.00;94.20
31263;DHT22;17892;52.080;9.006;2023-05-29T04:27:44;11.00;94.60
31263;DHT22;17892;52.080;9.006;2023-05-29T04:30:14;11.00;94.40
31263;DHT22;17892;52.080;9.006;2023-05-29T04:32:40;11.10;95.10
31263;DHT22;17892;52.080;9.006;2023-05-29T04:35:07;11.10;93.80
31263;DHT22;17892;52.080;9.006;2023-05-29T04:37:33;11.20;94.60
31263;DHT22;17892;52.080;9.006;2023-05-29T04:40:11;11.20;94.60
31263;DHT22;17892;52.080;9.006;2023-05-29T04:42:39;11.20;95.40
31263;DHT22;17892;52.080;9.006;2023-05-29T04:45:10;11.20;94.60
31263;DHT22;17892;52.080;9.006;2023-05-29T04:47:36;11.30;94.90
31263;DHT22;17892;52.080;9.006;2023-05-29T04:50:12;11.40;95.50
31263;DHT22;17892;52.080;9.006;2023-05-29T04:52:38;11.50;96.30
31263;DHT22;17892;52.080;9.006;2023-05-29T04:55:05;11.70;96.30
31263;DHT22;17892;52.080;9.006;2023-05-29T04:57:31;11.80;96.70
31263;DHT22;17892;52.080;9.006;2023-05-29T04:59:57;12.10;96.90
31263;DHT22;17892;52.080;9.006;2023-05-29T05:02:22;12.30;97.00
31263;DHT22;17892;52.080;9.006;2023-05-29T05:04:48;12.50;97.00
31263;DHT22;17892;52.080;9.006;2023-05-29T05:07:15;12.80;97.00
31263;DHT22;17892;52.080;9.006;2023-05-29T05:09:41;13.00;96.80
31263;DHT22;17892;52.080;9.006;2023-05-29T05:12:07;13.20;96.50
31263;DHT22;17892;52.080;9.006;2023-05-29T05:14:34;13.40;96.30
31263;DHT22;17892;52.080;9.006;2023-05-29T05:17:00;13.60;96.00
31263;DHT22;17892;52.080;9.006;2023-05-29T05:19:25;13.70;95.80
31263;DHT22;17892;52.080;9.006;2023-05-29T05:21:51;13.80;95.80
31263;DHT22;17892;52.080;9.006;2023-05-29T05:24:17;14.00;96.00
31263;DHT22;17892;52.080;9.006;2023-05-29T05:26:42;14.20;96.00
31263;DHT22;17892;52.080;9.006;2023-05-29T05:29:08;14.30;95.80
31263;DHT22;17892;52.080;9.006;2023-05-29T05:31:34;14.50;95.70
31263;DHT22;17892;52.080;9.006;2023-05-29T05:34:00;14.70;95.40
31263;DHT22;17892;52.080;9.006;2023-05-29T05:36:25;14.90;95.20
31263;DHT22;17892;52.080;9.006;2023-05-29T05:38:51;15.00;94.90
31263;DHT22;17892;52.080;9.006;2023-05-29T05:41:17;15.10;94.50
31263;DHT22;17892;52.080;9.006;2023-05-29T05:43:43;15.20;94.30
31263;DHT22;17892;52.080;9.006;2023-05-29T05:46:08;15.30;94.10
31263;DHT22;17892;52.080;9.006;2023-05-29T05:48:34;15.30;94.00
31263;DHT22;17892;52.080;9.006;2023-05-29T05:51:00;15.40;93.90
31263;DHT22;17892;52.080;9.006;2023-05-29T05:53:26;15.50;93.90
31263;DHT22;17892;52.080;9.006;2023-05-29T05:55:52;15.60;94.00
31263;DHT22;17892;52.080;9.006;2023-05-29T05:58:17;15.70;93.90
31263;DHT22;17892;52.080;9.006;2023-05-29T06:00:43;15.80;93.80
31263;DHT22;17892;52.080;9.006;2023-05-29T06:03:09;15.90;93.60
31263;DHT22;17892;52.080;9.006;2023-05-29T06:05:35;16.00;93.30
31263;DHT22;17892;52.080;9.006;2023-05-29T06:08:03;16.10;93.10
31263;DHT22;17892;52.080;9.006;2023-05-29T06:10:28;16.10;92.90
31263;DHT22;17892;52.080;9.006;2023-05-29T06:12:54;16.10;92.70
31263;DHT22;17892;52.080;9.006;2023-05-29T06:15:20;16.20;92.80
31263;DHT22;17892;52.080;9.006;2023-05-29T06:17:46;16.30;92.90
31263;DHT22;17892;52.080;9.006;2023-05-29T06:20:11;16.30;92.60
31263;DHT22;17892;52.080;9.006;2023-05-29T06:22:39;16.40;92.30
31263;DHT22;17892;52.080;9.006;2023-05-29T06:25:04;16.40;92.00
31263;DHT22;17892;52.080;9.006;2023-05-29T06:27:31;16.40;92.20
31263;DHT22;17892;52.080;9.006;2023-05-29T06:29:57;16.50;92.30
31263;DHT22;17892;52.080;9.006;2023-05-29T06:32:23;16.60;92.30
31263;DHT22;17892;52.080;9.006;2023-05-29T06:34:48;16.70;92.40
31263;DHT22;17892;52.080;9.006;2023-05-29T06:37:14;16.80;92.40
31263;DHT22;17892;52.080;9.006;2023-05-29T06:39:40;16.90;92.40
31263;DHT22;17892;52.080;9.006;2023-05-29T06:42:07;17.00;92.10
31263;DHT22;17892;52.080;9.006;2023-05-29T06:44:34;17.10;91.00
31263;DHT22;17892;52.080;9.006;2023-05-29T06:46:59;17.10;91.20
31263;DHT22;17892;52.080;9.006;2023-05-29T06:49:25;17.20;91.20
31263;DHT22;17892;52.080;9.006;2023-05-29T06:51:51;17.20;91.10
31263;DHT22;17892;52.080;9.006;2023-05-29T06:54:17;17.20;90.90
31263;DHT22;17892;52.080;9.006;2023-05-29T06:56:42;17.20;90.60
31263;DHT22;17892;52.080;9.006;2023-05-29T06:59:08;17.20;90.10
31263;DHT22;17892;52.080;9.006;2023-05-29T07:01:34;17.10;90.00
31263;DHT22;17892;52.080;9.006;2023-05-29T07:04:00;17.10;89.30
31263;DHT22;17892;52.080;9.006;2023-05-29T07:06:25;17.00;89.60
31263;DHT22;17892;52.080;9.006;2023-05-29T07:08:51;17.00;90.20
31263;DHT22;17892;52.080;9.006;2023-05-29T07:11:17;17.00;90.40
31263;DHT22;17892;52.080;9.006;2023-05-29T07:13:42;17.00;90.40
31263;DHT22;17892;52.080;9.006;2023-05-29T07:16:08;17.10;90.40
31263;DHT22;17892;52.080;9.006;2023-05-29T07:18:34;17.20;90.60
31263;DHT22;17892;52.080;9.006;2023-05-29T07:21:00;17.30;90.40
31263;DHT22;17892;52.080;9.006;2023-05-29T07:23:26;17.40;90.20
31263;DHT22;17892;52.080;9.006;2023-05-29T07:25:51;17.50;90.40
31263;DHT22;17892;52.080;9.006;2023-05-29T07:28:17;17.60;90.50
31263;DHT22;17892;52.080;9.006;2023-05-29T07:30:43;17.80;90.60
31263;DHT22;17892;52.080;9.006;2023-05-29T07:33:09;17.90;90.60
31263;DHT22;17892;52.080;9.006;2023-05-29T07:35:35;18.10;89.80
31263;DHT22;17892;52.080;9.006;2023-05-29T07:38:01;18.20;89.80
31263;DHT22;17892;52.080;9.006;2023-05-29T07:40:26;18.30;90.00
31263;DHT22;17892;52.080;9.006;2023-05-29T07:42:52;18.40;90.20
31263;DHT22;17892;52.080;9.006;2023-05-29T07:45:18;18.60;89.10
31263;DHT22;17892;52.080;9.006;2023-05-29T07:47:44;18.70;88.80
31263;DHT22;17892;52.080;9.006;2023-05-29T07:50:10;18.80;88.70
31263;DHT22;17892;52.080;9.006;2023-05-29T07:52:36;19.00;88.80
31263;DHT22;17892;52.080;9.006;2023-05-29T07:55:02;19.20;87.80
31263;DHT22;17892;52.080;9.006;2023-05-29T07:57:28;19.30;87.00
31263;DHT22;17892;52.080;9.006;2023-05-29T07:59:54;19.40;86.70
31263;DHT22;17892;52.080;9.006;2023-05-29T08:02:20;19.50;87.20
31263;DHT22;17892;52.080;9.006;2023-05-29T08:04:46;19.60;86.80
31263;DHT22;17892;52.080;9.006;2023-05-29T08:07:12;19.70;86.40
31263;DHT22;17892;52.080;9.006;2023-05-29T08:09:38;19.80;86.30
31263;DHT22;17892;52.080;9.006;2023-05-29T08:12:04;19.90;86.30
31263;DHT22;17892;52.080;9.006;2023-05-29T08:14:31;20.00;84.70
31263;DHT22;17892;52.080;9.006;2023-05-29T08:16:56;20.20;84.70
31263;DHT22;17892;52.080;9.006;2023-05-29T08:19:23;20.30;84.30
31263;DHT22;17892;52.080;9.006;2023-05-29T08:21:49;20.40;84.20
31263;DHT22;17892;52.080;9.006;2023-05-29T08:24:14;20.50;84.10
31263;DHT22;17892;52.080;9.006;2023-05-29T08:26:40;20.70;84.00
31263;DHT22;17892;52.080;9.006;2023-05-29T08:29:08;20.90;82.70
31263;DHT22;17892;52.080;9.006;2023-05-29T08:31:34;21.00;82.50
31263;DHT22;17892;52.080;9.006;2023-05-29T08:34:01;21.10;82.00
31263;DHT22;17892;52.080;9.006;2023-05-29T08:36:26;21.20;81.70
31263;DHT22;17892;52.080;9.006;2023-05-29T08:38:52;21.30;80.90
31263;DHT22;17892;52.080;9.006;2023-05-29T08:43:54;21.40;78.50
31263;DHT22;17892;52.080;9.006;2023-05-29T08:46:21;21.40;77.70
31263;DHT22;17892;52.080;9.006;2023-05-29T08:48:48;21.40;77.50
31263;DHT22;17892;52.080;9.006;2023-05-29T08:51:20;21.40;76.50
31263;DHT22;17892;52.080;9.006;2023-05-29T08:53:50;21.40;77.20
31263;DHT22;17892;52.080;9.006;2023-05-29T08:56:16;21.40;76.40
31263;DHT22;17892;52.080;9.006;2023-05-29T08:58:44;21.40;75.60
31263;DHT22;17892;52.080;9.006;2023-05-29T09:01:10;21.50;75.60
31263;DHT22;17892;52.080;9.006;2023-05-29T09:03:36;21.50;75.50
31263;DHT22;17892;52.080;9.006;2023-05-29T09:06:04;21.50;75.50
31263;DHT22;17892;52.080;9.006;2023-05-29T09:08:30;21.50;74.60
31263;DHT22;17892;52.080;9.006;2023-05-29T09:10:55;21.50;74.20
31263;DHT22;17892;52.080;9.006;2023-05-29T09:13:22;21.50;73.60
31263;DHT22;17892;52.080;9.006;2023-05-29T09:15:48;21.60;73.30
31263;DHT22;17892;52.080;9.006;2023-05-29T09:18:16;21.60;73.90
31263;DHT22;17892;52.080;9.006;2023-05-29T09:20:43;21.60;73.60
31263;DHT22;17892;52.080;9.006;2023-05-29T09:23:09;21.70;73.70
31263;DHT22;17892;52.080;9.006;2023-05-29T09:25:40;21.80;73.80
31263;DHT22;17892;52.080;9.006;2023-05-29T09:28:08;21.90;73.10
31263;DHT22;17892;52.080;9.006;2023-05-29T09:30:43;22.00;71.30
31263;DHT22;17892;52.080;9.006;2023-05-29T09:33:11;22.10;70.30
31263;DHT22;17892;52.080;9.006;2023-05-29T09:35:45;22.10;69.90
31263;DHT22;17892;52.080;9.006;2023-05-29T09:38:14;22.10;69.30
31263;DHT22;17892;52.080;9.006;2023-05-29T09:40:41;22.10;70.70
31263;DHT22;17892;52.080;9.006;2023-05-29T09:43:12;22.20;71.20
31263;DHT22;17892;52.080;9.006;2023-05-29T09:45:48;22.30;70.00
31263;DHT22;17892;52.080;9.006;2023-05-29T09:48:15;22.40;69.20
31263;DHT22;17892;52.080;9.006;2023-05-29T09:50:44;22.50;69.10
31263;DHT22;17892;52.080;9.006;2023-05-29T09:53:24;22.60;69.50
31263;DHT22;17892;52.080;9.006;2023-05-29T09:55:51;22.60;67.30
31263;DHT22;17892;52.080;9.006;2023-05-29T09:58:18;22.70;68.60
31263;DHT22;17892;52.080;9.006;2023-05-29T10:00:44;22.80;69.00
31263;DHT22;17892;52.080;9.006;2023-05-29T10:03:14;22.90;68.00
31263;DHT22;17892;52.080;9.006;2023-05-29T10:05:40;22.90;66.40
31263;DHT22;17892;52.080;9.006;2023-05-29T10:08:18;22.90;66.10
31263;DHT22;17892;52.080;9.006;2023-05-29T10:11:05;22.90;63.70
31263;DHT22;17892;52.080;9.006;2023-05-29T10:13:38;22.90;64.10
31263;DHT22;17892;52.080;9.006;2023-05-29T10:16:07;23.00;66.50
31263;DHT22;17892;52.080;9.006;2023-05-29T10:18:38;23.10;66.10
31263;DHT22;17892;52.080;9.006;2023-05-29T10:21:07;23.30;66.20
31263;DHT22;17892;52.080;9.006;2023-05-29T10:23:34;23.40;65.00
31263;DHT22;17892;52.080;9.006;2023-05-29T10:26:26;23.50;65.60
31263;DHT22;17892;52.080;9.006;2023-05-29T10:34:29;23.80;64.50
31263;DHT22;17892;52.080;9.006;2023-05-29T10:37:08;23.90;64.40
31263;DHT22;17892;52.080;9.006;2023-05-29T10:39:39;24.00;63.50
31263;DHT22;17892;52.080;9.006;2023-05-29T10:42:41;24.00;61.50
31263;DHT22;17892;52.080;9.006;2023-05-29T10:50:36;23.80;61.70
31263;DHT22;17892;52.080;9.006;2023-05-29T10:53:02;23.80;62.20
31263;DHT22;17892;52.080;9.006;2023-05-29T10:55:34;23.80;62.20
31263;DHT22;17892;52.080;9.006;2023-05-29T10:58:08;23.80;62.40
31263;DHT22;17892;52.080;9.006;2023-05-29T11:00:40;23.80;60.80
31263;DHT22;17892;52.080;9.006;2023-05-29T11:03:10;23.80;60.50
31263;DHT22;17892;52.080;9.006;2023-05-29T11:05:59;23.70;60.50
31263;DHT22;17892;52.080;9.006;2023-05-29T11:08:56;23.70;59.00
31263;DHT22;17892;52.080;9.006;2023-05-29T11:11:31;23.60;60.00
31263;DHT22;17892;52.080;9.006;2023-05-29T11:14:04;23.50;59.60
31263;DHT22;17892;52.080;9.006;2023-05-29T11:19:07;23.30;60.20
31263;DHT22;17892;52.080;9.006;2023-05-29T11:21:44;23.30;60.90
31263;DHT22;17892;52.080;9.006;2023-05-29T11:24:25;23.30;60.50
31263;DHT22;17892;52.080;9.006;2023-05-29T11:26:53;23.30;60.20
31263;DHT22;17892;52.080;9.006;2023-05-29T11:29:24;23.30;59.40
31263;DHT22;17892;52.080;9.006;2023-05-29T11:32:04;23.30;58.90
31263;DHT22;17892;52.080;9.006;2023-05-29T11:34:33;23.20;58.20
31263;DHT22;17892;52.080;9.006;2023-05-29T11:37:00;23.20;59.10
31263;DHT22;17892;52.080;9.006;2023-05-29T11:39:27;23.10;59.30
31263;DHT22;17892;52.080;9.006;2023-05-29T11:41:54;23.20;59.60
31263;DHT22;17892;52.080;9.006;2023-05-29T11:44:23;23.20;58.80
31263;DHT22;17892;52.080;9.006;2023-05-29T11:47:05;23.30;59.60
31263;DHT22;17892;52.080;9.006;2023-05-29T11:49:36;23.30;58.40
31263;DHT22;17892;52.080;9.006;2023-05-29T11:52:13;23.40;58.30
31263;DHT22;17892;52.080;9.006;2023-05-29T11:54:39;23.50;58.90
31263;DHT22;17892;52.080;9.006;2023-05-29T11:57:20;23.60;59.60
31263;DHT22;17892;52.080;9.006;2023-05-29T11:59:50;23.70;58.30
31263;DHT22;17892;52.080;9.006;2023-05-29T12:02:24;23.80;58.90
31263;DHT22;17892;52.080;9.006;2023-05-29T12:05:03;23.90;59.10
31263;DHT22;17892;52.080;9.006;2023-05-29T12:07:30;24.00;58.10
31263;DHT22;17892;52.080;9.006;2023-05-29T12:09:56;24.10;59.30
31263;DHT22;17892;52.080;9.006;2023-05-29T12:12:25;24.20;59.40
31263;DHT22;17892;52.080;9.006;2023-05-29T12:14:52;24.40;59.20
31263;DHT22;17892;52.080;9.006;2023-05-29T12:17:19;24.60;59.40
31263;DHT22;17892;52.080;9.006;2023-05-29T12:19:46;24.80;59.50
31263;DHT22;17892;52.080;9.006;2023-05-29T12:22:12;25.00;58.80
31263;DHT22;17892;52.080;9.006;2023-05-29T12:24:38;25.10;59.40
31263;DHT22;17892;52.080;9.006;2023-05-29T12:27:04;25.30;58.90
31263;DHT22;17892;52.080;9.006;2023-05-29T12:29:35;25.40;58.60
31263;DHT22;17892;52.080;9.006;2023-05-29T12:32:01;25.60;57.70
31263;DHT22;17892;52.080;9.006;2023-05-29T12:34:34;25.60;56.70
31263;DHT22;17892;52.080;9.006;2023-05-29T12:37:09;25.70;56.90
31263;DHT22;17892;52.080;9.006;2023-05-29T12:39:39;25.80;56.60
31263;DHT22;17892;52.080;9.006;2023-05-29T12:42:05;25.80;56.50
31263;DHT22;17892;52.080;9.006;2023-05-29T12:44:33;25.80;56.40
31263;DHT22;17892;52.080;9.006;2023-05-29T12:46:58;25.90;56.30
31263;DHT22;17892;52.080;9.006;2023-05-29T12:49:24;26.00;57.00
31263;DHT22;17892;52.080;9.006;2023-05-29T12:51:52;26.10;56.80
31263;DHT22;17892;52.080;9.006;2023-05-29T12:54:18;26.10;56.50
31263;DHT22;17892;52.080;9.006;2023-05-29T12:56:44;26.20;56.30
31263;DHT22;17892;52.080;9.006;2023-05-29T12:59:11;26.30;55.90
31263;DHT22;17892;52.080;9.006;2023-05-29T13:01:37;26.40;56.10
31263;DHT22;17892;52.080;9.006;2023-05-29T13:04:04;26.40;55.40
31263;DHT22;17892;52.080;9.006;2023-05-29T13:06:37;26.40;54.10
31263;DHT22;17892;52.080;9.006;2023-05-29T13:09:03;26.40;54.50
31263;DHT22;17892;52.080;9.006;2023-05-29T13:11:30;26.30;54.20
31263;DHT22;17892;52.080;9.006;2023-05-29T13:13:56;26.30;54.60
31263;DHT22;17892;52.080;9.006;2023-05-29T13:16:22;26.30;54.70
31263;DHT22;17892;52.080;9.006;2023-05-29T13:18:48;26.30;54.10
31263;DHT22;17892;52.080;9.006;2023-05-29T13:21:13;26.30;54.40
31263;DHT22;17892;52.080;9.006;2023-05-29T13:23:39;26.30;54.00
31263;DHT22;17892;52.080;9.006;2023-05-29T13:26:05;26.30;54.00
31263;DHT22;17892;52.080;9.006;2023-05-29T13:28:31;26.20;53.90
31263;DHT22;17892;52.080;9.006;2023-05-29T13:30:57;26.30;54.30
31263;DHT22;17892;52.080;9.006;2023-05-29T13:33:23;26.30;53.70
31263;DHT22;17892;52.080;9.006;2023-05-29T13:35:48;26.20;54.30
31263;DHT22;17892;52.080;9.006;2023-05-29T13:38:14;26.30;54.80
31263;DHT22;17892;52.080;9.006;2023-05-29T13:40:40;26.30;53.40
31263;DHT22;17892;52.080;9.006;2023-05-29T13:43:06;26.30;52.80
31263;DHT22;17892;52.080;9.006;2023-05-29T13:45:31;26.20;52.80
31263;DHT22;17892;52.080;9.006;2023-05-29T13:47:57;26.20;53.10
31263;DHT22;17892;52.080;9.006;2023-05-29T13:50:24;26.20;52.70
31263;DHT22;17892;52.080;9.006;2023-05-29T13:52:50;26.10;52.30
31263;DHT22;17892;52.080;9.006;2023-05-29T13:55:16;26.10;52.60
31263;DHT22;17892;52.080;9.006;2023-05-29T13:57:41;26.10;51.50
31263;DHT22;17892;52.080;9.006;2023-05-29T14:00:09;26.00;51.00
31263;DHT22;17892;52.080;9.006;2023-05-29T14:02:36;25.90;51.20
31263;DHT22;17892;52.080;9.006;2023-05-29T14:05:02;25.90;51.50
31263;DHT22;17892;52.080;9.006;2023-05-29T14:07:28;25.80;51.50
31263;DHT22;17892;52.080;9.006;2023-05-29T14:09:54;25.70;51.70
31263;DHT22;17892;52.080;9.006;2023-05-29T14:12:20;25.70;51.60
31263;DHT22;17892;52.080;9.006;2023-05-29T14:14:46;25.80;51.60
31263;DHT22;17892;52.080;9.006;2023-05-29T14:17:13;25.70;50.90
31263;DHT22;17892;52.080;9.006;2023-05-29T14:19:39;25.80;51.30
31263;DHT22;17892;52.080;9.006;2023-05-29T14:22:04;25.70;51.00
31263;DHT22;17892;52.080;9.006;2023-05-29T14:24:30;25.60;51.10
31263;DHT22;17892;52.080;9.006;2023-05-29T14:26:56;25.60;51.10
31263;DHT22;17892;52.080;9.006;2023-05-29T14:29:22;25.50;50.60
31263;DHT22;17892;52.080;9.006;2023-05-29T14:31:48;25.60;50.00
31263;DHT22;17892;52.080;9.006;2023-05-29T14:34:14;25.60;49.20
31263;DHT22;17892;52.080;9.006;2023-05-29T14:36:40;25.60;49.30
31263;DHT22;17892;52.080;9.006;2023-05-29T14:39:07;25.60;49.80
31263;DHT22;17892;52.080;9.006;2023-05-29T14:41:33;25.70;48.80
31263;DHT22;17892;52.080;9.006;2023-05-29T14:44:00;25.70;48.20
31263;DHT22;17892;52.080;9.006;2023-05-29T14:46:26;25.80;46.90
31263;DHT22;17892;52.080;9.006;2023-05-29T14:48:54;25.70;47.90
31263;DHT22;17892;52.080;9.006;2023-05-29T14:51:20;25.70;47.80
31263;DHT22;17892;52.080;9.006;2023-05-29T14:53:46;25.70;47.00
31263;DHT22;17892;52.080;9.006;2023-05-29T14:56:12;25.60;46.80
31263;DHT22;17892;52.080;9.006;2023-05-29T14:58:38;25.60;46.30
31263;DHT22;17892;52.080;9.006;2023-05-29T15:01:04;25.50;46.40
31263;DHT22;17892;52.080;9.006;2023-05-29T15:03:30;25.40;46.40
31263;DHT22;17892;52.080;9.006;2023-05-29T15:05:56;25.30;47.10
31263;DHT22;17892;52.080;9.006;2023-05-29T15:08:22;25.30;46.70
31263;DHT22;17892;52.080;9.006;2023-05-29T15:10:48;25.30;47.00
31263;DHT22;17892;52.080;9.006;2023-05-29T15:13:14;25.40;46.90
31263;DHT22;17892;52.080;9.006;2023-05-29T15:15:39;25.40;47.00
31263;DHT22;17892;52.080;9.006;2023-05-29T15:18:06;25.50;45.70
31263;DHT22;17892;52.080;9.006;2023-05-29T15:20:31;25.60;46.00
31263;DHT22;17892;52.080;9.006;2023-05-29T15:22:57;25.60;46.10
31263;DHT22;17892;52.080;9.006;2023-05-29T15:25:23;25.70;46.40
31263;DHT22;17892;52.080;9.006;2023-05-29T15:27:49;25.70;45.40
31263;DHT22;17892;52.080;9.006;2023-05-29T15:30:17;25.70;44.50
31263;DHT22;17892;52.080;9.006;2023-05-29T15:32:47;25.60;44.80
31263;DHT22;17892;52.080;9.006;2023-05-29T15:35:14;25.50;45.30
31263;DHT22;17892;52.080;9.006;2023-05-29T15:37:42;25.30;44.90
31263;DHT22;17892;52.080;9.006;2023-05-29T15:40:09;25.20;45.20
31263;DHT22;17892;52.080;9.006;2023-05-29T15:42:35;25.10;44.80
31263;DHT22;17892;52.080;9.006;2023-05-29T15:45:04;24.90;45.20
31263;DHT22;17892;52.080;9.006;2023-05-29T15:47:31;24.80;44.50
31263;DHT22;17892;52.080;9.006;2023-05-29T15:49:58;24.70;44.60
31263;DHT22;17892;52.080;9.006;2023-05-29T15:52:27;24.60;44.60